Monte Toledo — CQRA — position and weather

sailwx.info

Track history (hours):
 
Tides and Currents Weather Stations Pressure Air Temp Water Temp Dewpoint Dewpoint Depression Visibility Wind Speed Wind Dir Waves Ship Positions

Monte Toledo

Last reported at 2016-May-05 09:33 UTC. Time now 2016-May-05 10:24 UTC.
Position N 35°52' E 015°40'.

Length 274 m; draft 15.2 m.

Type: Tanker. MMSI: 255740000.

Date/timePositionNaut miles runAvg speedWind from/ knotsBaromVisibWave heightAir tempDewpointWater temp
2016-May-05 09:33N 35°52' E 015°40'1712.8
2016-May-05 08:11N 35°45' E 016°00'  
2016-Apr-29 14:14N 35°47' E 015°49'913.7
2016-Apr-29 13:33N 35°50' E 015°38'1313.5
2016-Apr-29 12:33N 35°55' E 015°23'1313.2
2016-Apr-29 11:33N 35°60' E 015°08'1513.3
2016-Apr-29 10:27N 36°05' E 014°51'1213.3
2016-Apr-29 09:33N 36°10' E 014°37'1413.6
2016-Apr-29 08:33N 36°15' E 014°21'1414.2
2016-Apr-29 07:33N 36°21' E 014°06'1414.4
2016-Apr-29 06:33N 36°26' E 013°49'1414.4
2016-Apr-29 05:33N 36°32' E 013°32'1414.5
2016-Apr-29 04:33N 36°36' E 013°15'1514.6
2016-Apr-29 03:33N 36°42' E 012°58'37914.0
2016-Apr-28 00:31N 37°26' E 005°07'1614.3
2016-Apr-27 23:23N 37°24' E 004°47'1214.2
2016-Apr-27 22:33N 37°22' E 004°32'1414.3
2016-Apr-27 21:33N 37°20' E 004°14'1514.8
2016-Apr-27 20:33N 37°18' E 003°56'1414.6
2016-Apr-27 19:33N 37°15' E 003°38'1514.4
2016-Apr-27 18:32N 37°13' E 003°20'1514.3
2016-Apr-27 17:29N 37°11' E 003°01'1414.6
2016-Apr-27 16:33N 37°08' E 002°45'1715.3
2016-Apr-27 15:27N 37°05' E 002°24'1314.8
2016-Apr-27 14:33N 37°01' E 002°08'1514.5
2016-Apr-27 13:32N 36°59' E 001°49'1414.8
2016-Apr-27 12:33N 36°57' E 001°32'1514.8
2016-Apr-27 11:33N 36°53' E 001°14'1514.7
2016-Apr-27 10:33N 36°50' E 000°56'1514.7
2016-Apr-27 09:33N 36°46' E 000°38'1914.0
2016-Apr-27 08:11N 36°42' E 000°15'1014.7
2016-Apr-27 07:32N 36°40' E 000°03'3114.4
2016-Apr-27 05:23N 36°35' W 000°35'1214.5
2016-Apr-27 04:33N 36°32' W 000°50'1514.6
2016-Apr-27 03:33N 36°29' W 001°08'1714.3
2016-Apr-27 02:23N 36°26' W 001°28'18214.8
2016-Apr-26 14:05N 36°00' W 005°11'815.2
2016-Apr-26 13:34N 36°02' W 005°21'8 0.8
2016-Apr-26 03:24N 36°09' W 005°25'0 0.1
2016-Apr-26 02:33N 36°09' W 005°25'0 0.1
2016-Apr-26 01:33N 36°09' W 005°25'  
Track history (hours):
 
Tides and Currents Weather Stations Pressure Air Temp Water Temp Dewpoint Dewpoint Depression Visibility Wind Speed Wind Dir Waves Ship Positions

Monte Toledo

Last reported at 2016-May-05 09:33 UTC. Time now 2016-May-05 10:24 UTC.
Position N 35°52' E 015°40'.

Length 274 m; draft 15.2 m.

Type: Tanker. MMSI: 255740000.

Date/timePositionNaut miles runAvg speedWind from/ knotsBaromVisibWave heightAir tempDewpointWater temp
2016-May-05 09:33N 35°52' E 015°40'1712.8
2016-May-05 08:11N 35°45' E 016°00'  
2016-Apr-29 14:14N 35°47' E 015°49'913.7
2016-Apr-29 13:33N 35°50' E 015°38'1313.5
2016-Apr-29 12:33N 35°55' E 015°23'1313.2
2016-Apr-29 11:33N 35°60' E 015°08'1513.3
2016-Apr-29 10:27N 36°05' E 014°51'1213.3
2016-Apr-29 09:33N 36°10' E 014°37'1413.6
2016-Apr-29 08:33N 36°15' E 014°21'1414.2
2016-Apr-29 07:33N 36°21' E 014°06'1414.4
2016-Apr-29 06:33N 36°26' E 013°49'1414.4
2016-Apr-29 05:33N 36°32' E 013°32'1414.5
2016-Apr-29 04:33N 36°36' E 013°15'1514.6
2016-Apr-29 03:33N 36°42' E 012°58'37914.0
2016-Apr-28 00:31N 37°26' E 005°07'1614.3
2016-Apr-27 23:23N 37°24' E 004°47'1214.2
2016-Apr-27 22:33N 37°22' E 004°32'1414.3
2016-Apr-27 21:33N 37°20' E 004°14'1514.8
2016-Apr-27 20:33N 37°18' E 003°56'1414.6
2016-Apr-27 19:33N 37°15' E 003°38'1514.4
2016-Apr-27 18:32N 37°13' E 003°20'1514.3
2016-Apr-27 17:29N 37°11' E 003°01'1414.6
2016-Apr-27 16:33N 37°08' E 002°45'1715.3
2016-Apr-27 15:27N 37°05' E 002°24'1314.8
2016-Apr-27 14:33N 37°01' E 002°08'1514.5
2016-Apr-27 13:32N 36°59' E 001°49'1414.8
2016-Apr-27 12:33N 36°57' E 001°32'1514.8
2016-Apr-27 11:33N 36°53' E 001°14'1514.7
2016-Apr-27 10:33N 36°50' E 000°56'1514.7
2016-Apr-27 09:33N 36°46' E 000°38'1914.0
2016-Apr-27 08:11N 36°42' E 000°15'1014.7
2016-Apr-27 07:32N 36°40' E 000°03'3114.4
2016-Apr-27 05:23N 36°35' W 000°35'1214.5
2016-Apr-27 04:33N 36°32' W 000°50'1514.6
2016-Apr-27 03:33N 36°29' W 001°08'1714.3
2016-Apr-27 02:23N 36°26' W 001°28'18214.8
2016-Apr-26 14:05N 36°00' W 005°11'815.2
2016-Apr-26 13:34N 36°02' W 005°21'8 0.8
2016-Apr-26 03:24N 36°09' W 005°25'0 0.1
2016-Apr-26 02:33N 36°09' W 005°25'0 0.1
2016-Apr-26 01:33N 36°09' W 005°25'  

Dump ship's entire track history